createdAt,value
2023-04-02T00:00:25.972Z,47.29
2023-04-02T00:01:37.060Z,47.08
2023-04-02T00:02:48.152Z,46.63
2023-04-02T00:04:15.675Z,46.99
2023-04-02T00:05:44.099Z,46.92
2023-04-02T00:06:47.775Z,46.55
2023-04-02T00:07:53.723Z,46.57
2023-04-02T00:08:58.561Z,46.52
2023-04-02T00:10:02.212Z,46.53
2023-04-02T00:11:07.146Z,46.34
2023-04-02T00:12:18.720Z,46.96
2023-04-02T00:13:30.362Z,46.58
2023-04-02T00:14:35.105Z,46.57
2023-04-02T00:15:39.318Z,46.65
2023-04-02T00:16:43.484Z,46.79
2023-04-02T00:17:47.187Z,46.40
2023-04-02T00:18:55.346Z,46.52
2023-04-02T00:20:01.226Z,46.88
2023-04-02T00:21:20.188Z,46.81
2023-04-02T00:22:29.962Z,46.76
2023-04-02T00:23:33.688Z,46.48
2023-04-02T00:24:39.986Z,46.48
2023-04-02T00:25:45.572Z,46.21
2023-04-02T00:26:51.215Z,46.89
2023-04-02T00:27:56.876Z,46.43
2023-04-02T00:29:12.130Z,46.22
2023-04-02T00:30:17.258Z,46.18
2023-04-02T00:31:21.673Z,45.94
2023-04-02T00:32:28.063Z,45.59
2023-04-02T00:33:33.982Z,45.63
2023-04-02T00:34:41.344Z,46.03
2023-04-02T00:35:45.061Z,45.99
2023-04-02T00:36:49.658Z,45.36
2023-04-02T00:37:53.666Z,45.12
2023-04-02T00:38:59.911Z,45.75
2023-04-02T00:40:08.023Z,45.81
2023-04-02T00:41:17.042Z,45.65
2023-04-02T00:42:21.567Z,45.20
2023-04-02T00:43:28.717Z,45.32
2023-04-02T00:44:33.381Z,45.22
2023-04-02T00:45:39.270Z,45.51
2023-04-02T00:46:45.446Z,45.18
2023-04-02T00:47:49.191Z,44.81
2023-04-02T00:48:58.457Z,45.61
2023-04-02T00:50:07.294Z,45.58
2023-04-02T00:51:18.806Z,45.55
2023-04-02T00:52:27.012Z,45.80
2023-04-02T00:53:31.801Z,45.64
2023-04-02T00:54:43.122Z,44.89
2023-04-02T00:55:47.136Z,45.05
2023-04-02T00:56:54.450Z,45.44
2023-04-02T00:58:00.387Z,45.22
2023-04-02T00:59:05.997Z,44.41
2023-04-02T01:00:21.304Z,45.44
2023-04-02T01:01:27.315Z,45.21
2023-04-02T01:02:34.291Z,45.05
2023-04-02T01:03:38.221Z,45.13
2023-04-02T01:04:42.787Z,45.29
2023-04-02T01:05:48.457Z,45.21
2023-04-02T01:06:52.195Z,45.14
2023-04-02T01:08:09.642Z,45.20
2023-04-02T01:09:28.693Z,45.12
2023-04-02T01:10:52.768Z,45.20
2023-04-02T01:12:11.221Z,45.20
2023-04-02T01:13:26.308Z,45.15
2023-04-02T01:14:45.557Z,45.21
2023-04-02T01:15:57.205Z,45.45
2023-04-02T01:17:10.887Z,45.60
2023-04-02T01:18:43.343Z,44.56
2023-04-02T01:20:19.418Z,44.97
2023-04-02T01:21:54.683Z,44.99
2023-04-02T01:23:05.286Z,45.02
2023-04-02T01:24:11.718Z,44.79
2023-04-02T01:25:20.027Z,44.45
2023-04-02T01:26:35.507Z,44.40
2023-04-02T01:27:44.599Z,44.72
2023-04-02T01:29:06.400Z,44.16
2023-04-02T01:30:11.929Z,44.17
2023-04-02T01:31:16.931Z,44.29
2023-04-02T01:32:24.166Z,44.38
2023-04-02T01:33:31.894Z,44.51
2023-04-02T01:34:36.780Z,43.92
2023-04-02T01:35:45.620Z,44.24
2023-04-02T01:37:03.097Z,43.89
2023-04-02T01:38:14.414Z,44.13
2023-04-02T01:39:32.444Z,44.28
2023-04-02T01:40:40.578Z,44.05
2023-04-02T01:41:52.352Z,44.48
2023-04-02T01:43:05.165Z,44.47
2023-04-02T01:44:14.830Z,44.62
2023-04-02T01:45:21.203Z,43.11
2023-04-02T01:46:30.302Z,43.77
2023-04-02T01:47:34.367Z,43.49
2023-04-02T01:48:41.085Z,43.67
2023-04-02T01:49:45.660Z,43.21
2023-04-02T01:50:52.506Z,42.95
2023-04-02T01:51:57.018Z,43.37
2023-04-02T01:53:03.136Z,43.78
2023-04-02T01:54:07.171Z,43.56
2023-04-02T01:55:13.151Z,43.75
2023-04-02T01:56:17.426Z,43.88
2023-04-02T01:57:21.178Z,43.86
2023-04-02T01:58:27.110Z,43.55
2023-04-02T01:59:32.758Z,43.92
2023-04-02T02:00:38.831Z,43.50
2023-04-02T02:01:46.713Z,43.14
2023-04-02T02:02:52.466Z,43.44
2023-04-02T02:03:56.354Z,42.65
2023-04-02T02:05:00.109Z,43.32
2023-04-02T02:06:06.513Z,43.39
2023-04-02T02:07:17.146Z,43.42
2023-04-02T02:08:32.579Z,42.97
2023-04-02T02:09:37.103Z,43.67
2023-04-02T02:10:40.922Z,43.49
2023-04-02T02:11:44.617Z,43.06
2023-04-02T02:12:48.808Z,43.11
2023-04-02T02:13:55.849Z,43.14
2023-04-02T02:15:01.104Z,43.05
2023-04-02T02:16:05.986Z,43.08
2023-04-02T02:17:14.899Z,43.15
2023-04-02T02:18:22.348Z,43.06
2023-04-02T02:19:29.929Z,43.07
2023-04-02T02:20:35.080Z,42.86
2023-04-02T02:21:40.999Z,42.79
2023-04-02T02:22:47.131Z,42.61
2023-04-02T02:23:52.980Z,42.95
2023-04-02T02:24:58.345Z,42.73
2023-04-02T02:26:01.989Z,42.57
2023-04-02T02:27:37.497Z,42.27
2023-04-02T02:28:43.616Z,42.83
2023-04-02T02:29:50.310Z,41.74
2023-04-02T02:30:58.871Z,42.24
2023-04-02T02:32:04.527Z,42.17
2023-04-02T02:33:15.415Z,42.70
2023-04-02T02:34:25.903Z,42.86
2023-04-02T02:35:35.011Z,42.89
2023-04-02T02:36:48.082Z,42.60
2023-04-02T02:37:58.207Z,42.51
2023-04-02T02:39:06.194Z,42.89
2023-04-02T02:40:16.835Z,42.63
2023-04-02T02:41:26.675Z,43.42
2023-04-02T02:42:36.266Z,42.94
2023-04-02T02:43:44.524Z,43.44
2023-04-02T02:44:50.712Z,42.69
2023-04-02T02:45:58.370Z,43.19
2023-04-02T02:47:04.456Z,42.95
2023-04-02T02:48:14.524Z,42.95
2023-04-02T02:49:22.108Z,43.24
2023-04-02T02:50:29.502Z,42.20
2023-04-02T02:51:44.949Z,42.54
2023-04-02T02:52:53.694Z,43.15
2023-04-02T02:54:03.852Z,42.73
2023-04-02T02:55:10.900Z,43.01
2023-04-02T02:56:15.246Z,42.71
2023-04-02T02:57:22.451Z,42.30
2023-04-02T02:58:29.058Z,42.05
2023-04-02T02:59:33.139Z,42.32
2023-04-02T03:00:38.299Z,42.09
2023-04-02T03:01:45.250Z,41.44
2023-04-02T03:02:49.636Z,41.07
2023-04-02T03:03:55.660Z,41.16
2023-04-02T03:04:59.489Z,41.13
2023-04-02T03:06:06.406Z,41.44
2023-04-02T03:07:10.406Z,41.63
2023-04-02T03:08:22.053Z,41.63
2023-04-02T03:09:38.001Z,41.80
2023-04-02T03:10:48.494Z,41.36
2023-04-02T03:11:58.004Z,41.43
2023-04-02T03:13:08.865Z,41.49
2023-04-02T03:14:21.071Z,41.37
2023-04-02T03:15:34.059Z,41.41
2023-04-02T03:16:42.241Z,41.80
2023-04-02T03:17:52.261Z,41.49
2023-04-02T03:18:59.848Z,41.40
2023-04-02T03:20:11.578Z,40.98
2023-04-02T03:21:26.750Z,40.92
2023-04-02T03:22:36.386Z,40.86
2023-04-02T03:23:44.563Z,40.31
2023-04-02T03:24:56.410Z,40.94
2023-04-02T03:26:05.162Z,40.86
2023-04-02T03:27:16.119Z,40.42
2023-04-02T03:28:24.329Z,41.05
2023-04-02T03:29:30.966Z,41.02
2023-04-02T03:30:41.152Z,41.07
2023-04-02T03:31:48.753Z,40.86
2023-04-02T03:33:00.147Z,40.66
2023-04-02T03:34:10.447Z,41.19
2023-04-02T03:35:23.206Z,40.90
2023-04-02T03:36:31.571Z,41.01
2023-04-02T03:37:43.558Z,41.09
2023-04-02T03:38:51.369Z,40.68
2023-04-02T03:40:00.322Z,41.46
2023-04-02T03:41:14.401Z,41.38
2023-04-02T03:42:22.503Z,40.75
2023-04-02T03:43:27.918Z,41.13
2023-04-02T03:44:36.045Z,41.60
2023-04-02T03:45:42.818Z,41.19
2023-04-02T03:46:50.010Z,41.08
2023-04-02T03:48:01.663Z,39.96
2023-04-02T03:49:10.533Z,40.76
2023-04-02T03:50:20.979Z,41.35
2023-04-02T03:51:28.452Z,41.30
2023-04-02T03:52:35.885Z,41.74
2023-04-02T03:53:39.965Z,41.67
2023-04-02T03:54:54.066Z,41.68
2023-04-02T03:55:59.473Z,41.31
2023-04-02T03:57:03.637Z,41.26
2023-04-02T03:58:14.698Z,40.75
2023-04-02T03:59:27.603Z,40.56
2023-04-02T04:00:38.337Z,40.27
2023-04-02T04:01:48.795Z,41.13
2023-04-02T04:02:57.642Z,40.83
2023-04-02T04:04:08.713Z,40.59
2023-04-02T04:05:23.900Z,40.70
2023-04-02T04:06:29.851Z,40.86
2023-04-02T04:07:40.232Z,40.46
2023-04-02T04:08:48.050Z,40.43
2023-04-02T04:09:54.241Z,40.48
2023-04-02T04:11:02.628Z,39.92
2023-04-02T04:12:15.699Z,39.81
2023-04-02T04:13:26.702Z,39.78
2023-04-02T04:14:33.667Z,39.57
2023-04-02T04:15:42.995Z,40.02
2023-04-02T04:16:52.237Z,40.33
2023-04-02T04:18:03.736Z,40.01
2023-04-02T04:19:16.271Z,40.64
2023-04-02T04:20:24.839Z,40.53
2023-04-02T04:21:29.621Z,40.66
2023-04-02T04:22:33.345Z,39.83
2023-04-02T04:23:39.250Z,40.81
2023-04-02T04:24:42.931Z,41.20
2023-04-02T04:25:46.638Z,40.83
2023-04-02T04:26:56.323Z,40.06
2023-04-02T04:28:08.518Z,40.96
2023-04-02T04:29:26.899Z,40.32
2023-04-02T04:30:35.534Z,41.38
2023-04-02T04:31:44.379Z,40.08
2023-04-02T04:32:51.116Z,40.45
2023-04-02T04:33:59.527Z,41.82
2023-04-02T04:35:08.537Z,40.60
2023-04-02T04:36:22.640Z,40.72
2023-04-02T04:37:29.467Z,40.59
2023-04-02T04:38:35.748Z,39.72
2023-04-02T04:39:45.618Z,40.45
2023-04-02T04:40:52.198Z,39.96
2023-04-02T04:41:58.103Z,39.77
2023-04-02T04:43:06.997Z,39.22
2023-04-02T04:44:20.173Z,38.30
2023-04-02T04:45:40.433Z,38.97
2023-04-02T04:46:48.044Z,38.44
2023-04-02T04:47:56.685Z,38.70
2023-04-02T04:49:09.325Z,38.61
2023-04-02T04:50:18.770Z,38.89
2023-04-02T04:51:26.207Z,39.94
2023-04-02T04:52:34.299Z,39.72
2023-04-02T04:53:48.353Z,39.73
2023-04-02T04:54:52.236Z,39.37
2023-04-02T04:56:06.019Z,40.05
2023-04-02T04:57:30.186Z,39.65
2023-04-02T04:58:37.239Z,40.84
2023-04-02T04:59:45.237Z,40.42
2023-04-02T05:00:57.306Z,40.69
2023-04-02T05:02:06.177Z,40.31
2023-04-02T05:03:18.304Z,39.08
2023-04-02T05:04:27.412Z,39.31
2023-04-02T05:05:34.798Z,39.05
2023-04-02T05:06:43.363Z,38.62
2023-04-02T05:07:51.711Z,38.88
2023-04-02T05:09:00.176Z,39.26
2023-04-02T05:10:12.223Z,39.57
2023-04-02T05:11:24.539Z,38.44
2023-04-02T05:12:34.449Z,38.57
2023-04-02T05:13:45.028Z,38.95
2023-04-02T05:14:54.561Z,38.50
2023-04-02T05:16:08.301Z,38.66
2023-04-02T05:17:17.839Z,38.33
2023-04-02T05:18:27.229Z,38.59
2023-04-02T05:19:39.760Z,39.06
2023-04-02T05:20:48.555Z,39.39
2023-04-02T05:21:56.269Z,40.29
2023-04-02T05:23:05.496Z,38.69
2023-04-02T05:24:34.112Z,40.01
2023-04-02T05:25:38.858Z,38.60
2023-04-02T05:26:46.454Z,37.70
2023-04-02T05:27:54.124Z,38.19
2023-04-02T05:29:03.470Z,39.13
2023-04-02T05:30:15.766Z,38.91
2023-04-02T05:31:24.508Z,38.15
2023-04-02T05:32:32.342Z,37.71
2023-04-02T05:33:37.470Z,39.17
2023-04-02T05:34:46.307Z,38.23
2023-04-02T05:35:55.051Z,37.91
2023-04-02T05:36:59.125Z,37.23
2023-04-02T05:38:03.750Z,38.29
2023-04-02T05:39:10.903Z,37.63
2023-04-02T05:40:20.114Z,37.72
2023-04-02T05:41:27.944Z,38.31
2023-04-02T05:42:37.058Z,37.71
2023-04-02T05:43:46.424Z,38.29
2023-04-02T05:45:02.472Z,37.52
2023-04-02T05:46:16.270Z,37.04
2023-04-02T05:47:24.605Z,37.18
2023-04-02T05:48:33.066Z,36.71
2023-04-02T05:49:45.382Z,37.37
2023-04-02T05:50:52.038Z,37.10
2023-04-02T05:51:59.676Z,37.46
2023-04-02T05:53:11.523Z,36.92
2023-04-02T05:54:23.501Z,37.88
2023-04-02T05:55:42.181Z,37.78
2023-04-02T05:56:49.868Z,37.26
2023-04-02T05:58:21.317Z,37.57
2023-04-02T05:59:27.961Z,35.94
2023-04-02T06:00:48.511Z,36.72
2023-04-02T06:01:57.857Z,37.17
2023-04-02T06:03:07.178Z,37.85
2023-04-02T06:04:20.593Z,37.38
2023-04-02T06:05:29.527Z,35.74
2023-04-02T06:06:49.707Z,35.18
2023-04-02T06:07:58.699Z,37.22
2023-04-02T06:09:12.339Z,36.70
2023-04-02T06:10:20.747Z,36.98
2023-04-02T06:11:29.349Z,35.92
2023-04-02T06:12:40.018Z,36.13
2023-04-02T06:13:43.741Z,35.58
2023-04-02T06:14:47.592Z,35.59
2023-04-02T06:15:51.398Z,36.16
2023-04-02T06:16:55.263Z,36.06
2023-04-02T06:18:09.655Z,35.67
2023-04-02T06:19:23.234Z,36.31
2023-04-02T06:20:28.858Z,36.10
2023-04-02T06:21:33.274Z,36.16
2023-04-02T06:22:39.838Z,36.27
2023-04-02T06:23:48.068Z,37.04
2023-04-02T06:24:58.589Z,35.88
2023-04-02T06:26:05.525Z,35.96
2023-04-02T06:27:15.704Z,35.00
2023-04-02T06:28:25.272Z,37.49
2023-04-02T06:29:33.955Z,35.89
2023-04-02T06:30:41.934Z,34.94
2023-04-02T06:31:49.566Z,35.81
2023-04-02T06:32:53.345Z,35.58
2023-04-02T06:33:57.887Z,36.09
2023-04-02T06:35:01.593Z,36.45
2023-04-02T06:36:09.962Z,36.47
2023-04-02T06:37:22.063Z,35.39
2023-04-02T06:38:30.556Z,36.32
2023-04-02T06:39:34.273Z,35.43
2023-04-02T06:40:43.276Z,35.68
2023-04-02T06:41:47.174Z,35.84
2023-04-02T06:42:52.702Z,36.31
2023-04-02T06:43:59.067Z,35.46
2023-04-02T06:45:03.224Z,35.37
2023-04-02T06:46:16.258Z,35.92
2023-04-02T06:47:28.008Z,34.61
2023-04-02T06:48:34.102Z,35.58
2023-04-02T06:49:43.233Z,35.38
2023-04-02T06:50:51.959Z,35.24
2023-04-02T06:51:59.431Z,36.80
2023-04-02T06:53:05.889Z,36.89
2023-04-02T06:54:15.527Z,36.86
2023-04-02T06:55:39.976Z,36.97
2023-04-02T06:56:46.917Z,36.83
2023-04-02T06:57:50.568Z,36.88
2023-04-02T06:58:54.278Z,37.32
2023-04-02T06:59:57.878Z,36.41
2023-04-02T07:01:01.584Z,36.78
2023-04-02T07:02:16.506Z,36.73
2023-04-02T07:03:25.226Z,36.23
2023-04-02T07:04:28.974Z,36.33
2023-04-02T07:05:32.899Z,36.42
2023-04-02T07:06:36.718Z,36.08
2023-04-02T07:07:42.097Z,36.13
2023-04-02T07:08:45.839Z,35.73
2023-04-02T07:09:49.447Z,36.68
2023-04-02T07:10:53.064Z,36.31
2023-04-02T07:11:56.712Z,35.67
2023-04-02T07:13:00.430Z,36.34
2023-04-02T07:14:04.320Z,35.30
2023-04-02T07:15:08.762Z,35.63
2023-04-02T07:16:17.016Z,35.57
2023-04-02T07:17:21.550Z,36.05
2023-04-02T07:18:28.453Z,35.08
2023-04-02T07:19:32.185Z,36.05
2023-04-02T07:20:36.781Z,36.34
2023-04-02T07:21:40.374Z,35.61
2023-04-02T07:22:45.686Z,35.90
2023-04-02T07:23:49.384Z,36.72
2023-04-02T07:24:53.265Z,36.75
2023-04-02T07:25:57.776Z,36.53
2023-04-02T07:27:01.443Z,35.64
2023-04-02T07:28:06.367Z,35.59
2023-04-02T07:29:14.954Z,35.45
2023-04-02T07:30:18.977Z,35.74
2023-04-02T07:31:25.013Z,35.18
2023-04-02T07:32:28.752Z,35.28
2023-04-02T07:33:32.584Z,35.27
2023-04-02T07:34:36.287Z,35.07
2023-04-02T07:35:39.965Z,35.02
2023-04-02T07:36:43.725Z,35.13
2023-04-02T07:37:48.983Z,36.03
2023-04-02T07:38:52.948Z,35.60
2023-04-02T07:39:56.681Z,35.58
2023-04-02T07:41:06.616Z,36.46
2023-04-02T07:42:10.687Z,34.97
2023-04-02T07:43:14.352Z,35.06
2023-04-02T07:44:17.978Z,34.96
2023-04-02T07:45:21.642Z,35.91
2023-04-02T07:46:30.914Z,35.54
2023-04-02T07:47:34.590Z,36.11
2023-04-02T07:48:38.281Z,35.86
2023-04-02T07:49:41.932Z,35.70
2023-04-02T07:50:45.492Z,34.56
2023-04-02T07:51:49.211Z,34.60
2023-04-02T07:52:54.520Z,34.91
2023-04-02T07:53:58.136Z,34.90
2023-04-02T07:55:01.931Z,34.78
2023-04-02T07:56:06.963Z,34.24
2023-04-02T07:57:10.615Z,34.78
2023-04-02T07:58:16.996Z,34.38
2023-04-02T07:59:20.606Z,33.66
2023-04-02T08:00:24.554Z,34.48
2023-04-02T08:01:29.201Z,34.44
2023-04-02T08:02:33.993Z,33.99
2023-04-02T08:03:37.858Z,35.49
2023-04-02T08:04:41.538Z,33.61
2023-04-02T08:05:50.075Z,34.87
2023-04-02T08:06:53.754Z,35.31
2023-04-02T08:07:59.088Z,34.62
2023-04-02T08:09:02.738Z,34.49
2023-04-02T08:10:07.242Z,34.49
2023-04-02T08:11:11.424Z,33.89
2023-04-02T08:12:15.535Z,34.73
2023-04-02T08:13:19.958Z,34.35
2023-04-02T08:14:23.564Z,34.03
2023-04-02T08:15:27.238Z,33.93
2023-04-02T08:16:45.122Z,33.38
2023-04-02T08:17:48.876Z,34.29
2023-04-02T08:18:52.822Z,32.46
2023-04-02T08:19:56.570Z,33.69
2023-04-02T08:21:00.839Z,33.96
2023-04-02T08:22:04.555Z,34.10
2023-04-02T08:23:14.899Z,34.05
2023-04-02T08:24:18.698Z,35.13
2023-04-02T08:25:22.283Z,34.63
2023-04-02T08:26:25.878Z,34.39
2023-04-02T08:27:29.462Z,33.71
2023-04-02T08:28:33.168Z,33.95
2023-04-02T08:29:36.788Z,34.16
2023-04-02T08:30:40.672Z,33.73
2023-04-02T08:31:44.327Z,33.84
2023-04-02T08:32:48.270Z,33.83
2023-04-02T08:33:51.976Z,33.10
2023-04-02T08:34:55.652Z,33.88
2023-04-02T08:35:59.484Z,33.47
2023-04-02T08:37:03.191Z,33.99
2023-04-02T08:38:07.036Z,33.38
2023-04-02T08:39:12.444Z,33.38
2023-04-02T08:40:24.446Z,33.38
2023-04-02T08:41:28.706Z,33.48
2023-04-02T08:42:39.853Z,33.69
2023-04-02T08:44:10.839Z,33.12
2023-04-02T08:45:25.454Z,32.76
2023-04-02T08:46:38.256Z,32.80
2023-04-02T08:47:43.678Z,32.96
2023-04-02T08:48:55.195Z,33.05
2023-04-02T08:50:02.429Z,32.95
2023-04-02T08:51:07.978Z,33.75
2023-04-02T08:52:22.959Z,33.64
2023-04-02T08:53:31.692Z,33.13
2023-04-02T08:54:38.187Z,33.81
2023-04-02T08:55:46.379Z,33.45
2023-04-02T08:56:56.296Z,32.99
2023-04-02T08:58:07.033Z,33.09
2023-04-02T08:59:21.934Z,33.82
2023-04-02T09:00:37.456Z,33.52
2023-04-02T09:01:49.776Z,33.11
2023-04-02T09:02:58.119Z,33.10
2023-04-02T09:04:03.238Z,32.56
2023-04-02T09:05:15.969Z,33.23
2023-04-02T09:06:21.883Z,33.54
2023-04-02T09:07:26.581Z,33.42
2023-04-02T09:08:32.199Z,33.35
2023-04-02T09:09:39.493Z,33.58
2023-04-02T09:10:49.840Z,33.20
2023-04-02T09:11:56.062Z,33.33
2023-04-02T09:13:00.728Z,33.16
2023-04-02T09:14:10.858Z,33.07
2023-04-02T09:15:31.821Z,32.78
2023-04-02T09:16:45.545Z,32.88
2023-04-02T09:17:53.961Z,32.60
2023-04-02T09:18:58.253Z,33.33
2023-04-02T09:20:08.373Z,34.21
2023-04-02T09:21:32.838Z,33.87
2023-04-02T09:22:36.533Z,33.83
2023-04-02T09:23:40.160Z,33.77
2023-04-02T09:24:45.507Z,33.41
2023-04-02T09:26:01.345Z,33.72
2023-04-02T09:27:19.183Z,33.26
2023-04-02T09:28:22.898Z,34.01
2023-04-02T09:29:50.333Z,33.69
2023-04-02T09:31:06.877Z,33.73
2023-04-02T09:32:40.377Z,33.36
2023-04-02T09:33:45.696Z,32.96
2023-04-02T09:34:49.354Z,33.33
2023-04-02T09:35:57.779Z,33.26
2023-04-02T09:37:10.077Z,32.46
2023-04-02T09:38:20.461Z,32.14
2023-04-02T09:39:25.773Z,32.90
2023-04-02T09:40:41.182Z,32.16
2023-04-02T09:41:48.177Z,32.93
2023-04-02T09:43:11.776Z,32.36
2023-04-02T09:44:21.360Z,32.30
2023-04-02T09:45:25.778Z,32.51
2023-04-02T09:46:29.492Z,32.43
2023-04-02T09:47:33.627Z,32.18
2023-04-02T09:48:39.705Z,32.66
2023-04-02T09:49:43.314Z,32.81
2023-04-02T09:50:46.904Z,32.38
2023-04-02T09:52:19.118Z,34.45
2023-04-02T09:53:31.094Z,34.02
2023-04-02T09:54:34.880Z,33.12
2023-04-02T09:55:40.421Z,33.31
2023-04-02T09:57:01.540Z,34.21
2023-04-02T09:58:14.578Z,34.78
2023-04-02T09:59:20.667Z,33.83
2023-04-02T10:00:41.805Z,34.18
2023-04-02T10:01:47.366Z,32.28
2023-04-02T10:03:04.022Z,34.84
2023-04-02T10:04:28.579Z,34.05
2023-04-02T10:06:51.349Z,33.86
2023-04-02T10:08:06.038Z,34.37
2023-04-02T10:09:31.198Z,33.91
2023-04-02T10:10:41.554Z,35.53
2023-04-02T10:11:46.701Z,34.83
2023-04-02T10:12:55.713Z,35.34
2023-04-02T10:14:02.047Z,35.53
2023-04-02T10:15:07.005Z,35.93
2023-04-02T10:16:14.718Z,35.22
2023-04-02T10:17:24.141Z,36.31
2023-04-02T10:18:41.184Z,34.95
2023-04-02T10:19:49.204Z,36.11
2023-04-02T10:20:55.196Z,36.38
2023-04-02T10:22:01.910Z,36.00
2023-04-02T10:23:06.524Z,36.17
2023-04-02T10:24:14.284Z,35.97
2023-04-02T10:25:20.344Z,36.30
2023-04-02T10:26:49.227Z,35.40
2023-04-02T10:27:59.605Z,35.36
2023-04-02T10:29:28.375Z,35.67
2023-04-02T10:30:39.457Z,35.42
2023-04-02T10:31:56.537Z,36.27
2023-04-02T10:33:04.152Z,36.19
2023-04-02T10:34:17.680Z,36.67
2023-04-02T10:35:33.585Z,36.70
2023-04-02T10:36:49.032Z,37.00
2023-04-02T10:38:18.832Z,37.04
2023-04-02T10:39:26.933Z,37.28
2023-04-02T10:40:37.415Z,38.20
2023-04-02T10:41:52.281Z,38.12
2023-04-02T10:43:10.861Z,37.48
2023-04-02T10:44:41.038Z,38.83
2023-04-02T10:45:49.662Z,37.57
2023-04-02T10:47:08.975Z,37.65
2023-04-02T10:48:22.659Z,37.67
2023-04-02T10:49:34.404Z,39.12
2023-04-02T10:50:46.851Z,37.96
2023-04-02T10:51:59.253Z,38.00
2023-04-02T10:53:11.828Z,37.14
2023-04-02T10:54:31.943Z,37.97
2023-04-02T10:55:38.097Z,38.65
2023-04-02T10:56:50.491Z,38.06
2023-04-02T10:58:01.118Z,38.38
2023-04-02T10:59:12.739Z,39.87
2023-04-02T11:00:23.298Z,39.43
2023-04-02T11:01:29.502Z,40.39
2023-04-02T11:02:39.354Z,40.78
2023-04-02T11:03:47.605Z,41.40
2023-04-02T11:04:55.411Z,41.05
2023-04-02T11:06:03.408Z,40.83
2023-04-02T11:07:14.383Z,41.30
2023-04-02T11:08:23.442Z,41.93
2023-04-02T11:09:32.327Z,41.54
2023-04-02T11:10:40.294Z,40.45
2023-04-02T11:11:47.506Z,41.64
2023-04-02T11:12:57.034Z,42.19
2023-04-02T11:14:04.298Z,41.42
2023-04-02T11:15:16.849Z,41.23
2023-04-02T11:16:20.871Z,41.95
2023-04-02T11:17:25.417Z,41.85
2023-04-02T11:18:30.793Z,42.23
2023-04-02T11:19:35.249Z,41.50
2023-04-02T11:20:58.257Z,42.04
2023-04-02T11:22:06.652Z,41.82
2023-04-02T11:23:12.965Z,41.63
2023-04-02T11:24:40.819Z,41.35
2023-04-02T11:25:45.951Z,40.83
2023-04-02T11:26:49.773Z,41.07
2023-04-02T11:27:55.254Z,40.36
2023-04-02T11:29:25.180Z,41.00
2023-04-02T11:30:29.356Z,40.53
2023-04-02T11:31:33.613Z,40.47
2023-04-02T11:32:39.711Z,40.91
2023-04-02T11:33:46.057Z,40.96
2023-04-02T11:35:19.252Z,40.37
2023-04-02T11:37:00.060Z,40.27
2023-04-02T11:38:24.151Z,40.53
2023-04-02T11:39:49.780Z,40.70
2023-04-02T11:40:54.070Z,40.50
2023-04-02T11:42:07.216Z,40.62
2023-04-02T11:43:57.759Z,40.55
2023-04-02T11:45:56.272Z,40.98
2023-04-02T11:47:19.121Z,41.77
2023-04-02T11:48:31.441Z,42.28
2023-04-02T11:49:40.413Z,41.99
2023-04-02T11:50:45.536Z,42.05
2023-04-02T11:51:54.371Z,42.13
2023-04-02T11:53:20.182Z,41.18
2023-04-02T11:54:26.985Z,42.29
2023-04-02T11:55:32.481Z,41.94
2023-04-02T11:56:42.610Z,41.99
2023-04-02T11:57:56.665Z,41.42
2023-04-02T11:59:10.936Z,41.43
2023-04-02T12:00:32.601Z,41.85
2023-04-02T12:01:51.313Z,42.56
2023-04-02T12:03:13.893Z,41.66
2023-04-02T12:04:51.935Z,42.56
2023-04-02T12:06:03.751Z,42.68
2023-04-02T12:07:47.463Z,42.83
2023-04-02T12:09:01.691Z,42.55
2023-04-02T12:10:17.104Z,42.08
2023-04-02T12:11:34.218Z,41.41
2023-04-02T12:12:39.814Z,43.11
2023-04-02T12:13:54.608Z,44.24
2023-04-02T12:14:59.306Z,42.19
2023-04-02T12:16:04.955Z,42.76
2023-04-02T12:17:21.066Z,42.11
2023-04-02T12:18:25.884Z,41.81
2023-04-02T12:19:31.205Z,41.32
2023-04-02T12:20:35.788Z,41.40
2023-04-02T12:21:46.798Z,41.47
2023-04-02T12:22:52.758Z,41.67
2023-04-02T12:24:02.860Z,41.45
2023-04-02T12:25:20.222Z,42.61
2023-04-02T12:26:30.827Z,42.63
2023-04-02T12:27:34.516Z,41.60
2023-04-02T12:28:38.244Z,41.82
2023-04-02T12:29:42.297Z,42.06
2023-04-02T12:30:46.649Z,42.48
2023-04-02T12:31:52.768Z,42.09
2023-04-02T12:32:56.414Z,42.37
2023-04-02T12:34:00.157Z,42.50
2023-04-02T12:35:05.681Z,43.06
2023-04-02T12:36:21.158Z,43.03
2023-04-02T12:37:26.619Z,42.83
2023-04-02T12:38:31.566Z,42.86
2023-04-02T12:39:35.856Z,43.76
2023-04-02T12:40:39.503Z,44.16
2023-04-02T12:41:43.147Z,43.44
2023-04-02T12:42:46.817Z,42.90
2023-04-02T12:43:58.318Z,42.57
2023-04-02T12:45:02.363Z,42.18
2023-04-02T12:46:09.015Z,42.40
2023-04-02T12:47:14.991Z,40.54
2023-04-02T12:48:19.052Z,42.52
2023-04-02T12:49:32.067Z,42.07
2023-04-02T12:50:36.153Z,42.42
2023-04-02T12:51:40.429Z,42.01
2023-04-02T12:53:02.082Z,41.99
2023-04-02T12:54:06.456Z,41.86
2023-04-02T12:55:23.353Z,40.91
2023-04-02T12:56:26.936Z,41.40
2023-04-02T12:57:38.940Z,43.46
2023-04-02T12:58:43.625Z,42.20
2023-04-02T12:59:47.294Z,42.90
2023-04-02T13:00:50.915Z,42.47
2023-04-02T13:01:58.812Z,42.99
2023-04-02T13:03:18.595Z,42.60
2023-04-02T13:04:22.449Z,43.63
2023-04-02T13:05:38.245Z,43.09
2023-04-02T13:06:48.367Z,43.25
2023-04-02T13:07:52.027Z,44.31
2023-04-02T13:08:56.189Z,44.67
2023-04-02T13:10:01.525Z,45.50
2023-04-02T13:11:07.089Z,45.46
2023-04-02T13:12:26.237Z,45.35
2023-04-02T13:13:33.663Z,44.68
2023-04-02T13:14:38.228Z,44.93
2023-04-02T13:15:42.427Z,43.83
2023-04-02T13:16:46.338Z,44.03
2023-04-02T13:18:03.431Z,43.65
2023-04-02T13:19:23.675Z,43.43
2023-04-02T13:20:32.212Z,42.99
2023-04-02T13:21:36.284Z,43.59
2023-04-02T13:22:39.902Z,43.14
2023-04-02T13:23:44.016Z,42.98
2023-04-02T13:24:47.679Z,44.14
2023-04-02T13:25:51.962Z,44.18
2023-04-02T13:26:58.279Z,44.37
2023-04-02T13:28:02.638Z,44.01
2023-04-02T13:29:21.446Z,45.34
2023-04-02T13:30:26.778Z,44.88
2023-04-02T13:31:31.296Z,45.03
2023-04-02T13:32:34.956Z,43.67
2023-04-02T13:33:38.760Z,43.79
2023-04-02T13:34:44.021Z,44.77
2023-04-02T13:35:47.693Z,43.92
2023-04-02T13:36:51.372Z,44.21
2023-04-02T13:37:55.102Z,44.08
2023-04-02T13:38:58.975Z,43.43
2023-04-02T13:40:04.244Z,43.57
2023-04-02T13:41:11.842Z,43.62
2023-04-02T13:42:15.546Z,44.27
2023-04-02T13:43:20.799Z,44.15
2023-04-02T13:44:26.119Z,43.63
2023-04-02T13:45:32.001Z,43.05
2023-04-02T13:46:36.313Z,44.78
2023-04-02T13:47:41.220Z,44.00
2023-04-02T13:48:45.121Z,44.79
2023-04-02T13:49:50.469Z,44.74
2023-04-02T13:50:54.366Z,45.15
2023-04-02T13:52:00.237Z,45.23
2023-04-02T13:53:10.234Z,44.52
2023-04-02T13:54:21.153Z,45.38
2023-04-02T13:55:27.896Z,44.68
2023-04-02T13:56:31.650Z,43.98
2023-04-02T13:57:35.557Z,43.94
2023-04-02T13:58:39.459Z,43.97
2023-04-02T13:59:43.103Z,43.46
2023-04-02T14:00:47.914Z,44.84
2023-04-02T14:01:54.584Z,44.23
2023-04-02T14:03:07.148Z,44.60
2023-04-02T14:04:13.808Z,45.42
2023-04-02T14:05:32.410Z,44.92
2023-04-02T14:07:07.132Z,45.28
2023-04-02T14:08:16.305Z,45.03
2023-04-02T14:09:28.016Z,45.24
2023-04-02T14:10:45.336Z,45.55
2023-04-02T14:11:56.647Z,44.96
2023-04-02T14:13:17.191Z,44.04
2023-04-02T14:14:35.161Z,44.46
2023-04-02T14:15:51.166Z,44.87
2023-04-02T14:17:08.595Z,45.36
2023-04-02T14:18:29.221Z,44.76
2023-04-02T14:19:54.137Z,44.46
2023-04-02T14:21:09.156Z,45.92
2023-04-02T14:22:22.362Z,47.07
2023-04-02T14:23:45.756Z,47.15
2023-04-02T14:24:57.938Z,46.53
2023-04-02T14:26:13.677Z,45.83
2023-04-02T14:27:27.948Z,46.52
2023-04-02T14:28:41.879Z,45.77
2023-04-02T14:29:52.389Z,46.28
2023-04-02T14:31:04.253Z,46.77
2023-04-02T14:32:11.430Z,46.49
2023-04-02T14:33:25.477Z,46.07
2023-04-02T14:34:37.007Z,47.01
2023-04-02T14:35:54.507Z,46.51
2023-04-02T14:37:13.682Z,45.94
2023-04-02T14:38:25.723Z,46.49
2023-04-02T14:39:38.744Z,46.29
2023-04-02T14:40:48.409Z,45.33
2023-04-02T14:41:57.624Z,45.23
2023-04-02T14:43:05.660Z,44.92
2023-04-02T14:44:12.211Z,44.88
2023-04-02T14:45:25.749Z,44.79
2023-04-02T14:46:31.485Z,44.83
2023-04-02T14:47:40.347Z,44.25
2023-04-02T14:48:49.328Z,45.33
2023-04-02T14:49:56.712Z,45.44
2023-04-02T14:51:04.596Z,45.78
2023-04-02T14:52:14.942Z,45.43
2023-04-02T14:53:26.272Z,46.13
2023-04-02T14:54:35.292Z,45.73